createdAt,value
2023-02-15T00:00:06.798Z,3.40
2023-02-15T00:02:33.894Z,3.40
2023-02-15T00:05:02.524Z,3.50
2023-02-15T00:07:29.808Z,3.50
2023-02-15T00:09:57.122Z,3.60
2023-02-15T00:12:24.349Z,3.50
2023-02-15T00:14:52.185Z,3.50
2023-02-15T00:17:19.406Z,3.50
2023-02-15T00:19:46.547Z,3.50
2023-02-15T00:22:15.096Z,3.50
2023-02-15T00:24:42.163Z,3.50
2023-02-15T00:27:10.335Z,3.50
2023-02-15T00:29:37.832Z,3.40
2023-02-15T00:32:05.171Z,3.40
2023-02-15T00:34:44.990Z,3.50
2023-02-15T00:37:16.123Z,3.30
2023-02-15T00:39:43.225Z,3.40
2023-02-15T00:42:10.473Z,3.40
2023-02-15T00:44:37.649Z,3.30
2023-02-15T00:47:04.933Z,3.40
2023-02-15T00:49:32.027Z,3.40
2023-02-15T00:51:59.061Z,3.40
2023-02-15T00:54:28.681Z,3.30
2023-02-15T00:56:55.849Z,3.30
2023-02-15T00:59:23.121Z,3.40
2023-02-15T01:01:50.226Z,3.40
2023-02-15T01:04:17.397Z,3.30
2023-02-15T01:06:45.121Z,3.40
2023-02-15T01:09:13.513Z,3.30
2023-02-15T01:11:42.152Z,3.30
2023-02-15T01:14:09.387Z,3.20
2023-02-15T01:16:36.637Z,3.20
2023-02-15T01:19:03.786Z,3.30
2023-02-15T01:21:31.027Z,3.40
2023-02-15T01:23:58.160Z,3.30
2023-02-15T01:26:25.423Z,3.30
2023-02-15T01:28:56.329Z,3.20
2023-02-15T01:31:23.518Z,3.30
2023-02-15T01:33:51.252Z,3.20
2023-02-15T01:36:18.636Z,3.30
2023-02-15T01:38:46.247Z,3.40
2023-02-15T01:41:27.110Z,3.40
2023-02-15T01:43:59.618Z,3.40
2023-02-15T01:46:33.574Z,3.40
2023-02-15T01:49:10.217Z,3.40
2023-02-15T01:51:39.175Z,3.50
2023-02-15T01:54:13.024Z,3.40
2023-02-15T01:56:42.192Z,3.40
2023-02-15T01:59:18.217Z,3.50
2023-02-15T02:01:45.744Z,3.40
2023-02-15T02:04:20.370Z,3.50
2023-02-15T02:06:50.097Z,3.50
2023-02-15T02:09:17.497Z,3.30
2023-02-15T02:11:48.018Z,3.30
2023-02-15T02:14:17.679Z,3.30
2023-02-15T02:16:56.269Z,3.40
2023-02-15T02:20:11.743Z,3.50
2023-02-15T02:23:11.508Z,3.50
2023-02-15T02:26:19.542Z,3.60
2023-02-15T02:29:27.706Z,3.50
2023-02-15T02:32:23.650Z,3.50
2023-02-15T02:35:02.225Z,3.30
2023-02-15T02:37:42.759Z,3.40
2023-02-15T02:40:18.129Z,3.40
2023-02-15T02:42:51.789Z,3.40
2023-02-15T02:45:26.554Z,3.40
2023-02-15T02:47:57.831Z,3.50
2023-02-15T02:50:30.166Z,3.60
2023-02-15T02:52:59.856Z,3.60
2023-02-15T02:55:31.966Z,3.70
2023-02-15T02:58:04.537Z,3.50
2023-02-15T03:00:36.740Z,3.40
2023-02-15T03:03:07.899Z,3.60
2023-02-15T03:05:44.058Z,3.50
2023-02-15T03:08:12.134Z,3.50
2023-02-15T03:10:41.617Z,3.50
2023-02-15T03:13:09.966Z,3.60
2023-02-15T03:15:59.450Z,3.70
2023-02-15T03:18:33.087Z,3.70
2023-02-15T03:21:03.777Z,3.70
2023-02-15T03:23:33.636Z,3.70
2023-02-15T03:26:04.511Z,3.70
2023-02-15T03:28:37.424Z,3.60
2023-02-15T03:31:08.069Z,3.60
2023-02-15T03:33:41.038Z,3.50
2023-02-15T03:36:20.082Z,3.60
2023-02-15T03:39:00.883Z,3.60
2023-02-15T03:41:33.677Z,3.50
2023-02-15T03:44:07.578Z,3.50
2023-02-15T03:46:42.064Z,3.50
2023-02-15T03:49:14.476Z,3.50
2023-02-15T03:51:47.736Z,3.60
2023-02-15T03:54:40.300Z,3.60
2023-02-15T03:57:30.208Z,3.60
2023-02-15T04:00:16.708Z,3.60
2023-02-15T04:03:05.106Z,3.50
2023-02-15T04:05:32.284Z,3.50
2023-02-15T04:08:00.823Z,3.40
2023-02-15T04:10:46.464Z,3.40
2023-02-15T04:13:13.736Z,3.40
2023-02-15T04:16:00.156Z,3.50
2023-02-15T04:18:45.865Z,3.50
2023-02-15T04:21:31.781Z,3.40
2023-02-15T04:24:18.702Z,3.50
2023-02-15T04:26:47.016Z,3.50
2023-02-15T04:29:14.744Z,3.50
2023-02-15T04:31:42.030Z,3.50
2023-02-15T04:34:09.443Z,3.50
2023-02-15T04:36:36.607Z,3.40
2023-02-15T04:39:05.222Z,3.50
2023-02-15T04:41:32.687Z,3.50
2023-02-15T04:44:01.566Z,3.50
2023-02-15T04:46:29.859Z,3.50
2023-02-15T04:48:57.643Z,3.50
2023-02-15T04:51:25.318Z,3.50
2023-02-15T04:53:55.487Z,3.50
2023-02-15T04:56:24.054Z,3.50
2023-02-15T04:58:51.297Z,3.50
2023-02-15T05:01:18.713Z,3.30
2023-02-15T05:03:45.951Z,3.30
2023-02-15T05:06:12.981Z,3.30
2023-02-15T05:08:40.904Z,3.30
2023-02-15T05:11:08.841Z,3.40
2023-02-15T05:13:37.355Z,3.40
2023-02-15T05:16:05.479Z,3.50
2023-02-15T05:18:32.837Z,3.40
2023-02-15T05:20:59.955Z,3.40
2023-02-15T05:23:27.168Z,3.40
2023-02-15T05:26:12.858Z,3.40
2023-02-15T05:28:41.498Z,3.40
2023-02-15T05:31:14.035Z,3.40
2023-02-15T05:33:41.909Z,3.40
2023-02-15T05:36:09.615Z,3.40
2023-02-15T05:38:38.603Z,3.40
2023-02-15T05:41:05.868Z,3.50
2023-02-15T05:43:34.096Z,3.60
2023-02-15T05:46:04.119Z,3.40
2023-02-15T05:48:32.740Z,3.40
2023-02-15T05:51:01.805Z,3.50
2023-02-15T05:53:30.213Z,3.50
2023-02-15T05:56:00.651Z,3.50
2023-02-15T05:58:29.309Z,3.50
2023-02-15T06:00:56.796Z,3.40
2023-02-15T06:03:26.922Z,3.40
2023-02-15T06:05:54.349Z,3.40
2023-02-15T06:08:22.109Z,3.20
2023-02-15T06:10:49.458Z,3.30
2023-02-15T06:13:16.790Z,3.20
2023-02-15T06:15:44.113Z,3.20
2023-02-15T06:18:11.233Z,3.30
2023-02-15T06:20:40.002Z,3.40
2023-02-15T06:23:07.226Z,3.40
2023-02-15T06:25:36.360Z,3.20
2023-02-15T06:28:04.044Z,3.20
2023-02-15T06:30:31.565Z,3.40
2023-02-15T06:32:59.502Z,3.40
2023-02-15T06:35:26.608Z,3.40
2023-02-15T06:37:55.031Z,3.30
2023-02-15T06:40:22.360Z,3.20
2023-02-15T06:42:49.636Z,3.30
2023-02-15T06:45:17.188Z,3.40
2023-02-15T06:47:44.335Z,3.40
2023-02-15T06:50:12.519Z,3.40
2023-02-15T06:52:39.661Z,3.40
2023-02-15T06:55:08.790Z,3.40
2023-02-15T06:57:36.051Z,3.40
2023-02-15T07:00:05.948Z,3.40
2023-02-15T07:02:35.599Z,3.30
2023-02-15T07:05:03.811Z,3.40
2023-02-15T07:07:31.250Z,3.40
2023-02-15T07:09:58.545Z,3.30
2023-02-15T07:12:42.264Z,3.30
2023-02-15T07:15:10.757Z,3.30
2023-02-15T07:17:38.648Z,3.40
2023-02-15T07:20:11.293Z,3.40
2023-02-15T07:22:39.160Z,3.20
2023-02-15T07:25:09.567Z,3.30
2023-02-15T07:27:38.691Z,3.30
2023-02-15T07:30:10.207Z,3.40
2023-02-15T07:32:38.004Z,3.50
2023-02-15T07:35:06.078Z,3.40
2023-02-15T07:37:33.151Z,3.30
2023-02-15T07:40:00.574Z,3.30
2023-02-15T07:42:27.721Z,3.30
2023-02-15T07:45:11.708Z,3.40
2023-02-15T07:47:40.172Z,3.30
2023-02-15T07:50:08.233Z,3.30
2023-02-15T07:52:35.381Z,3.30
2023-02-15T07:55:04.943Z,3.30
2023-02-15T07:57:32.140Z,3.40
2023-02-15T08:00:00.689Z,3.40
2023-02-15T08:02:27.762Z,3.50
2023-02-15T08:04:55.296Z,3.50
2023-02-15T08:07:22.441Z,3.40
2023-02-15T08:09:49.529Z,3.40
2023-02-15T08:12:16.696Z,3.50
2023-02-15T08:14:44.024Z,3.50
2023-02-15T08:17:12.708Z,3.50
2023-02-15T08:19:39.787Z,3.50
2023-02-15T08:22:11.122Z,3.50
2023-02-15T08:24:39.014Z,3.60
2023-02-15T08:27:06.833Z,3.60
2023-02-15T08:29:36.241Z,3.60
2023-02-15T08:32:06.833Z,3.60
2023-02-15T08:34:37.855Z,3.60
2023-02-15T08:37:07.005Z,3.50
2023-02-15T08:39:34.809Z,3.50
2023-02-15T08:42:02.255Z,3.40
2023-02-15T08:44:29.765Z,3.30
2023-02-15T08:47:03.421Z,3.30
2023-02-15T08:49:30.656Z,3.20
2023-02-15T08:52:01.585Z,3.30
2023-02-15T08:54:29.371Z,3.30
2023-02-15T08:56:56.555Z,3.30
2023-02-15T08:59:25.329Z,3.30
2023-02-15T09:02:05.604Z,3.40
2023-02-15T09:04:38.566Z,3.50
2023-02-15T09:07:07.259Z,3.50
2023-02-15T09:09:34.596Z,3.50
2023-02-15T09:12:01.771Z,3.40
2023-02-15T09:14:29.215Z,3.40
2023-02-15T09:16:56.897Z,3.40
2023-02-15T09:19:26.112Z,3.40
2023-02-15T09:21:53.362Z,3.40
2023-02-15T09:24:22.150Z,3.50
2023-02-15T09:26:50.395Z,3.50
2023-02-15T09:29:19.523Z,3.50
2023-02-15T09:31:49.845Z,3.40
2023-02-15T09:34:19.611Z,3.40
2023-02-15T09:36:47.843Z,3.40
2023-02-15T09:39:17.924Z,3.40
2023-02-15T09:42:44.341Z,3.40
2023-02-15T09:45:29.083Z,3.50
2023-02-15T09:48:33.576Z,3.40
2023-02-15T09:51:23.692Z,3.50
2023-02-15T09:54:12.275Z,3.60
2023-02-15T09:56:44.350Z,3.60
2023-02-15T09:59:22.383Z,3.50
2023-02-15T10:02:04.057Z,3.60
2023-02-15T10:05:01.808Z,3.70
2023-02-15T10:07:49.875Z,3.60
2023-02-15T10:10:28.803Z,3.80
2023-02-15T10:13:10.905Z,3.80
2023-02-15T10:16:01.888Z,3.60
2023-02-15T10:18:45.228Z,3.70
2023-02-15T10:21:25.131Z,3.70
2023-02-15T10:24:16.488Z,3.70
2023-02-15T10:26:46.640Z,3.70
2023-02-15T10:29:28.799Z,3.70
2023-02-15T10:32:06.588Z,3.70
2023-02-15T10:34:40.219Z,3.70
2023-02-15T10:37:34.229Z,3.70
2023-02-15T10:40:24.701Z,3.80
2023-02-15T10:43:10.390Z,3.90
2023-02-15T10:45:49.056Z,3.90
2023-02-15T10:48:52.442Z,3.90
2023-02-15T10:51:32.935Z,3.90
2023-02-15T10:54:13.034Z,3.90
2023-02-15T10:56:50.498Z,3.90
2023-02-15T10:59:38.892Z,3.90
2023-02-15T11:02:19.783Z,3.90
2023-02-15T11:05:00.442Z,3.90
2023-02-15T11:07:34.320Z,3.90
2023-02-15T11:10:25.580Z,4.00
2023-02-15T11:12:53.893Z,4.00
2023-02-15T11:15:30.510Z,4.00
2023-02-15T11:18:03.648Z,4.10
2023-02-15T11:20:38.975Z,4.00
2023-02-15T11:23:17.120Z,3.90
2023-02-15T11:25:47.662Z,4.00
2023-02-15T11:28:23.940Z,4.20
2023-02-15T11:30:55.940Z,4.00
2023-02-15T11:33:28.369Z,3.90
2023-02-15T11:36:04.480Z,4.00
2023-02-15T11:38:34.645Z,4.00
2023-02-15T11:41:06.441Z,4.00
2023-02-15T11:43:39.602Z,4.10
2023-02-15T11:46:11.314Z,4.00
2023-02-15T11:48:40.593Z,4.20
2023-02-15T11:51:17.039Z,4.20
2023-02-15T11:53:44.918Z,4.10
2023-02-15T11:56:16.147Z,4.10
2023-02-15T11:58:48.878Z,4.10
2023-02-15T12:01:21.658Z,4.10
2023-02-15T12:03:51.103Z,4.10
2023-02-15T12:06:28.435Z,4.20
2023-02-15T12:09:07.326Z,4.30
2023-02-15T12:11:38.091Z,4.40
2023-02-15T12:14:07.921Z,4.30
2023-02-15T12:16:43.956Z,4.40
2023-02-15T12:19:30.331Z,4.70
2023-02-15T12:22:01.133Z,4.70
2023-02-15T12:24:31.510Z,4.60
2023-02-15T12:27:02.996Z,4.60
2023-02-15T12:29:37.228Z,4.60
2023-02-15T12:32:05.805Z,4.60
2023-02-15T12:34:40.610Z,4.50
2023-02-15T12:37:17.554Z,4.40
2023-02-15T12:39:55.549Z,4.60
2023-02-15T12:42:24.847Z,4.70
2023-02-15T12:45:00.904Z,4.80
2023-02-15T12:47:29.415Z,4.80
2023-02-15T12:50:18.043Z,4.80
2023-02-15T12:52:49.701Z,4.80
2023-02-15T12:55:24.374Z,4.70
2023-02-15T12:58:08.013Z,4.60
2023-02-15T13:00:35.769Z,4.70
2023-02-15T13:03:04.122Z,4.80
2023-02-15T13:05:35.632Z,4.70
2023-02-15T13:08:12.950Z,4.70
2023-02-15T13:10:44.232Z,4.70
2023-02-15T13:13:15.989Z,4.70
2023-02-15T13:15:48.978Z,4.70
2023-02-15T13:18:21.046Z,4.70
2023-02-15T13:20:49.638Z,4.50
2023-02-15T13:23:28.617Z,4.60
2023-02-15T13:25:59.130Z,4.60
2023-02-15T13:28:35.679Z,4.60
2023-02-15T13:31:03.133Z,4.70
2023-02-15T13:33:35.976Z,4.80
2023-02-15T13:36:11.403Z,4.80
2023-02-15T13:38:54.269Z,4.80
2023-02-15T13:41:29.979Z,4.90
2023-02-15T13:44:09.824Z,4.80
2023-02-15T13:46:56.192Z,4.90
2023-02-15T13:49:41.100Z,4.90
2023-02-15T13:56:19.316Z,4.80
2023-02-15T13:59:25.800Z,4.80
2023-02-15T14:01:59.151Z,4.80
2023-02-15T14:04:53.888Z,4.80
2023-02-15T14:07:48.420Z,4.80
2023-02-15T14:10:59.216Z,4.80
2023-02-15T14:13:55.687Z,4.90
2023-02-15T14:16:36.496Z,4.90
2023-02-15T14:19:17.345Z,4.90
2023-02-15T14:21:54.494Z,4.80
2023-02-15T14:24:32.285Z,4.80
2023-02-15T14:27:12.084Z,4.90
2023-02-15T14:29:50.734Z,4.90
2023-02-15T14:32:27.188Z,4.80
2023-02-15T14:35:09.400Z,4.80
2023-02-15T14:37:48.346Z,4.70
2023-02-15T14:40:47.781Z,4.70
2023-02-15T14:43:26.279Z,4.70
2023-02-15T14:45:57.506Z,4.80
2023-02-15T14:48:32.253Z,4.80
2023-02-15T14:51:00.008Z,4.80
2023-02-15T14:53:43.459Z,4.80
2023-02-15T14:56:26.359Z,4.80
2023-02-15T14:59:14.173Z,4.90
2023-02-15T15:01:43.700Z,4.90
2023-02-15T15:04:16.171Z,4.90
2023-02-15T15:06:45.067Z,5.00
2023-02-15T15:12:40.768Z,4.90
2023-02-15T15:15:13.744Z,4.90
2023-02-15T15:18:00.772Z,4.90
2023-02-15T15:20:50.973Z,4.90
2023-02-15T15:23:50.107Z,4.90
2023-02-15T15:26:30.137Z,4.90
2023-02-15T15:29:00.909Z,5.00
2023-02-15T15:31:42.346Z,4.90
2023-02-15T15:35:02.024Z,5.00
2023-02-15T15:38:15.281Z,5.10
2023-02-15T15:41:04.949Z,5.00
2023-02-15T15:44:28.632Z,5.00
2023-02-15T15:47:35.444Z,5.00
2023-02-15T15:50:13.105Z,5.00
2023-02-15T15:52:49.018Z,5.00
2023-02-15T15:55:19.641Z,5.00
2023-02-15T15:57:51.608Z,5.00
2023-02-15T16:00:35.609Z,5.00
2023-02-15T16:03:03.921Z,4.90
2023-02-15T16:05:39.407Z,4.90
2023-02-15T16:08:07.535Z,4.90
2023-02-15T16:10:37.272Z,4.90
2023-02-15T16:13:06.132Z,4.90
2023-02-15T16:15:38.539Z,4.90
2023-02-15T16:18:06.137Z,4.90
2023-02-15T16:20:37.927Z,4.90
2023-02-15T16:23:29.585Z,4.90
2023-02-15T16:26:07.582Z,4.90
2023-02-15T16:28:35.420Z,4.80
2023-02-15T16:31:12.982Z,4.90
2023-02-15T16:33:42.948Z,4.90
2023-02-15T16:36:22.321Z,4.60
2023-02-15T16:39:10.966Z,4.60
2023-02-15T16:41:39.090Z,4.70
2023-02-15T16:44:14.072Z,4.70
2023-02-15T16:46:44.992Z,4.70
2023-02-15T16:49:19.224Z,4.80
2023-02-15T16:52:16.138Z,4.80
2023-02-15T16:54:44.117Z,4.80
2023-02-15T16:57:20.755Z,4.80
2023-02-15T16:59:51.695Z,4.90
2023-02-15T17:02:42.986Z,4.80
2023-02-15T17:05:20.163Z,4.80
2023-02-15T17:08:07.151Z,4.70
2023-02-15T17:10:37.550Z,4.70
2023-02-15T17:13:11.705Z,4.70
2023-02-15T17:15:41.467Z,4.80
2023-02-15T17:18:17.617Z,4.80
2023-02-15T17:20:46.957Z,4.90
2023-02-15T17:23:31.102Z,4.90
2023-02-15T17:25:59.414Z,5.00
2023-02-15T17:28:30.111Z,4.90
2023-02-15T17:30:58.847Z,4.90
2023-02-15T17:33:37.656Z,4.90
2023-02-15T17:36:13.080Z,4.90
2023-02-15T17:39:02.203Z,4.90
2023-02-15T17:41:31.315Z,4.90
2023-02-15T17:43:58.749Z,4.90
2023-02-15T17:46:27.396Z,4.90
2023-02-15T17:48:56.992Z,4.90
2023-02-15T17:51:24.508Z,4.90
2023-02-15T17:54:11.673Z,4.80
2023-02-15T17:56:39.989Z,4.80
2023-02-15T17:59:07.883Z,4.80
2023-02-15T18:01:54.646Z,4.80
2023-02-15T18:04:40.974Z,4.90
2023-02-15T18:07:27.894Z,4.90
2023-02-15T18:10:14.834Z,4.90
2023-02-15T18:12:42.862Z,4.80
2023-02-15T18:15:12.737Z,4.80
2023-02-15T18:17:43.923Z,4.70
2023-02-15T18:20:21.527Z,4.60
2023-02-15T18:22:49.089Z,4.50
2023-02-15T18:25:21.571Z,4.60
2023-02-15T18:27:48.891Z,4.70
2023-02-15T18:30:18.780Z,4.70
2023-02-15T18:32:47.417Z,4.70
2023-02-15T18:35:17.443Z,4.60
2023-02-15T18:37:45.261Z,4.70
2023-02-15T18:40:18.723Z,4.70
2023-02-15T18:42:49.634Z,4.70
2023-02-15T18:45:22.365Z,4.60
2023-02-15T18:47:50.217Z,4.60
2023-02-15T18:50:20.088Z,4.70
2023-02-15T18:52:50.652Z,4.70
2023-02-15T18:55:22.463Z,4.80
2023-02-15T18:57:52.056Z,4.80
2023-02-15T19:00:22.658Z,4.70
2023-02-15T19:02:49.901Z,4.50
2023-02-15T19:05:21.205Z,4.60
2023-02-15T19:07:52.591Z,4.50
2023-02-15T19:10:25.100Z,4.60
2023-02-15T19:12:53.516Z,4.60
2023-02-15T19:15:23.626Z,4.60
2023-02-15T19:17:52.004Z,4.60
2023-02-15T19:20:22.105Z,4.60
2023-02-15T19:22:52.179Z,4.70
2023-02-15T19:25:24.103Z,4.60
2023-02-15T19:27:53.387Z,4.70
2023-02-15T19:30:28.942Z,4.60
2023-02-15T19:32:57.098Z,4.60
2023-02-15T19:35:27.699Z,4.60
2023-02-15T19:37:57.926Z,4.50
2023-02-15T19:40:29.569Z,4.50
2023-02-15T19:42:57.039Z,4.60
2023-02-15T19:45:26.529Z,4.60
2023-02-15T19:47:55.138Z,4.60
2023-02-15T19:50:24.996Z,4.70
2023-02-15T19:52:52.942Z,4.60
2023-02-15T19:55:24.821Z,4.60
2023-02-15T19:57:58.070Z,4.70
2023-02-15T20:00:27.603Z,4.70
2023-02-15T20:02:56.077Z,4.60
2023-02-15T20:05:24.100Z,4.70
2023-02-15T20:07:53.443Z,4.60
2023-02-15T20:10:27.415Z,4.60
2023-02-15T20:12:56.280Z,4.40
2023-02-15T20:15:29.786Z,4.50
2023-02-15T20:17:59.132Z,4.50
2023-02-15T20:20:40.114Z,4.50
2023-02-15T20:23:20.977Z,4.60
2023-02-15T20:25:48.864Z,4.40
2023-02-15T20:28:23.496Z,4.40
2023-02-15T20:30:51.253Z,4.40
2023-02-15T20:33:19.664Z,4.50
2023-02-15T20:35:48.531Z,4.50
2023-02-15T20:38:21.074Z,4.50
2023-02-15T20:41:07.031Z,4.50
2023-02-15T20:43:35.862Z,4.40
2023-02-15T20:46:04.086Z,4.40
2023-02-15T20:48:31.518Z,4.40
2023-02-15T20:50:58.874Z,4.50
2023-02-15T20:53:27.276Z,4.40
2023-02-15T20:55:54.701Z,4.40
2023-02-15T20:58:25.064Z,4.40
2023-02-15T21:00:55.320Z,4.40
2023-02-15T21:03:27.788Z,4.40
2023-02-15T21:05:55.406Z,4.40
2023-02-15T21:08:24.417Z,4.50
2023-02-15T21:10:53.933Z,4.40
2023-02-15T21:13:25.866Z,4.50
2023-02-15T21:15:56.619Z,4.50
2023-02-15T21:18:26.666Z,4.50
2023-02-15T21:20:56.682Z,4.40
2023-02-15T21:23:30.009Z,4.50
2023-02-15T21:25:57.451Z,4.50
2023-02-15T21:28:28.218Z,4.50
2023-02-15T21:30:58.311Z,4.40
2023-02-15T21:33:29.565Z,4.50
2023-02-15T21:36:08.094Z,4.40
2023-02-15T21:38:36.257Z,4.40
2023-02-15T21:41:23.437Z,4.40
2023-02-15T21:44:09.180Z,4.40
2023-02-15T21:46:57.015Z,4.40
2023-02-15T21:49:24.238Z,4.30
2023-02-15T21:52:10.104Z,4.30
2023-02-15T21:54:37.518Z,4.40
2023-02-15T21:57:04.753Z,4.60
2023-02-15T21:59:32.148Z,4.60
2023-02-15T22:02:00.880Z,4.40
2023-02-15T22:04:30.524Z,4.30
2023-02-15T22:06:57.775Z,4.30
2023-02-15T22:09:27.378Z,4.30
2023-02-15T22:11:55.210Z,4.30
2023-02-15T22:14:39.195Z,4.40
2023-02-15T22:17:15.952Z,4.30
2023-02-15T22:19:44.288Z,4.10
2023-02-15T22:22:11.987Z,4.20
2023-02-15T22:24:39.228Z,4.30
2023-02-15T22:27:07.706Z,4.40
2023-02-15T22:29:35.729Z,4.40
2023-02-15T22:32:03.122Z,4.40
2023-02-15T22:34:33.286Z,4.10
2023-02-15T22:37:00.715Z,4.20
2023-02-15T22:39:27.864Z,4.20
2023-02-15T22:41:55.769Z,4.10
2023-02-15T22:44:26.459Z,4.20
2023-02-15T22:46:54.319Z,4.10
2023-02-15T22:49:21.718Z,4.20
2023-02-15T22:51:51.460Z,4.30
2023-02-15T22:54:19.318Z,4.40
2023-02-15T22:56:50.089Z,4.30
2023-02-15T22:59:21.827Z,4.10
2023-02-15T23:01:52.221Z,4.10
2023-02-15T23:04:22.237Z,4.20
2023-02-15T23:06:54.254Z,4.00
2023-02-15T23:09:22.457Z,4.10
2023-02-15T23:11:51.582Z,4.00
2023-02-15T23:14:27.843Z,4.10
2023-02-15T23:16:55.794Z,4.10
2023-02-15T23:19:23.033Z,4.10
2023-02-15T23:21:52.334Z,4.00
2023-02-15T23:24:23.128Z,4.00
2023-02-15T23:26:51.453Z,4.00
2023-02-15T23:29:21.787Z,4.00
2023-02-15T23:31:52.515Z,4.00
2023-02-15T23:34:24.762Z,4.10
2023-02-15T23:36:53.778Z,4.10
2023-02-15T23:39:42.512Z,4.10
2023-02-15T23:42:14.528Z,4.10
2023-02-15T23:44:44.813Z,4.00
2023-02-15T23:47:20.963Z,4.00
2023-02-15T23:49:48.135Z,4.00
2023-02-15T23:52:16.989Z,3.80
2023-02-15T23:54:44.522Z,3.90
2023-02-15T23:57:13.267Z,3.90
2023-02-15T23:59:44.923Z,3.90
